sensor_id;sensor_type;location;lat;lon;timestamp;P1;durP1;ratioP1;P2;durP2;ratioP2
6249;SDS011;3158;52.148;11.568;2024-01-15T00:00:41;7.32;;;4.85;;
6249;SDS011;3158;52.148;11.568;2024-01-15T00:05:42;7.50;;;5.05;;
6249;SDS011;3158;52.148;11.568;2024-01-15T00:10:43;6.50;;;4.53;;
6249;SDS011;3158;52.148;11.568;2024-01-15T00:15:44;6.82;;;4.70;;
6249;SDS011;3158;52.148;11.568;2024-01-15T00:20:45;5.40;;;4.00;;
6249;SDS011;3158;52.148;11.568;2024-01-15T00:25:46;4.13;;;3.75;;
6249;SDS011;3158;52.148;11.568;2024-01-15T00:30:47;4.47;;;4.10;;
6249;SDS011;3158;52.148;11.568;2024-01-15T00:35:48;5.82;;;4.32;;
6249;SDS011;3158;52.148;11.568;2024-01-15T00:40:49;5.05;;;4.10;;
6249;SDS011;3158;52.148;11.568;2024-01-15T00:45:50;4.45;;;4.05;;
6249;SDS011;3158;52.148;11.568;2024-01-15T00:50:51;4.70;;;4.07;;
6249;SDS011;3158;52.148;11.568;2024-01-15T00:55:54;11.40;;;5.40;;
6249;SDS011;3158;52.148;11.568;2024-01-15T01:00:55;4.80;;;4.35;;
6249;SDS011;3158;52.148;11.568;2024-01-15T01:05:56;6.18;;;4.15;;
6249;SDS011;3158;52.148;11.568;2024-01-15T01:10:57;5.38;;;4.00;;
6249;SDS011;3158;52.148;11.568;2024-01-15T01:15:58;7.20;;;4.28;;
6249;SDS011;3158;52.148;11.568;2024-01-15T01:20:59;5.22;;;3.83;;
6249;SDS011;3158;52.148;11.568;2024-01-15T01:26:00;6.75;;;4.22;;
6249;SDS011;3158;52.148;11.568;2024-01-15T01:31:01;6.60;;;4.82;;
6249;SDS011;3158;52.148;11.568;2024-01-15T01:36:06;5.95;;;4.28;;
6249;SDS011;3158;52.148;11.568;2024-01-15T01:41:07;4.53;;;3.33;;
6249;SDS011;3158;52.148;11.568;2024-01-15T01:46:08;5.25;;;3.78;;
6249;SDS011;3158;52.148;11.568;2024-01-15T01:51:10;4.57;;;3.13;;
6249;SDS011;3158;52.148;11.568;2024-01-15T01:56:12;4.90;;;2.63;;
6249;SDS011;3158;52.148;11.568;2024-01-15T02:01:13;4.05;;;3.55;;
6249;SDS011;3158;52.148;11.568;2024-01-15T02:06:14;4.25;;;3.08;;
6249;SDS011;3158;52.148;11.568;2024-01-15T02:11:15;6.38;;;3.55;;
6249;SDS011;3158;52.148;11.568;2024-01-15T02:16:16;3.20;;;2.35;;
6249;SDS011;3158;52.148;11.568;2024-01-15T02:21:17;3.25;;;2.33;;
6249;SDS011;3158;52.148;11.568;2024-01-15T02:26:18;4.88;;;3.17;;
6249;SDS011;3158;52.148;11.568;2024-01-15T02:31:19;4.20;;;2.40;;
6249;SDS011;3158;52.148;11.568;2024-01-15T02:36:20;2.35;;;2.15;;
6249;SDS011;3158;52.148;11.568;2024-01-15T02:41:21;3.17;;;2.22;;
6249;SDS011;3158;52.148;11.568;2024-01-15T02:46:23;4.38;;;2.40;;
6249;SDS011;3158;52.148;11.568;2024-01-15T02:51:24;2.88;;;1.85;;
6249;SDS011;3158;52.148;11.568;2024-01-15T02:56:25;2.30;;;1.92;;
6249;SDS011;3158;52.148;11.568;2024-01-15T03:01:26;2.55;;;1.70;;
6249;SDS011;3158;52.148;11.568;2024-01-15T03:06:27;2.47;;;2.15;;
6249;SDS011;3158;52.148;11.568;2024-01-15T03:11:28;4.75;;;1.40;;
6249;SDS011;3158;52.148;11.568;2024-01-15T03:16:29;2.83;;;1.27;;
6249;SDS011;3158;52.148;11.568;2024-01-15T03:21:30;5.68;;;2.03;;
6249;SDS011;3158;52.148;11.568;2024-01-15T03:26:31;2.03;;;1.20;;
6249;SDS011;3158;52.148;11.568;2024-01-15T03:31:32;2.47;;;1.90;;
6249;SDS011;3158;52.148;11.568;2024-01-15T03:36:33;4.70;;;1.25;;
6249;SDS011;3158;52.148;11.568;2024-01-15T03:41:34;5.50;;;1.08;;
6249;SDS011;3158;52.148;11.568;2024-01-15T03:46:35;1.80;;;1.20;;
6249;SDS011;3158;52.148;11.568;2024-01-15T03:51:36;3.10;;;0.82;;
6249;SDS011;3158;52.148;11.568;2024-01-15T03:56:37;9.40;;;1.00;;
6249;SDS011;3158;52.148;11.568;2024-01-15T04:01:38;4.97;;;0.90;;
6249;SDS011;3158;52.148;11.568;2024-01-15T04:06:39;2.30;;;1.00;;
6249;SDS011;3158;52.148;11.568;2024-01-15T04:11:40;2.70;;;0.60;;
6249;SDS011;3158;52.148;11.568;2024-01-15T04:16:41;2.42;;;0.93;;
6249;SDS011;3158;52.148;11.568;2024-01-15T04:21:42;2.03;;;0.82;;
6249;SDS011;3158;52.148;11.568;2024-01-15T04:26:43;2.10;;;0.77;;
6249;SDS011;3158;52.148;11.568;2024-01-15T04:31:44;4.35;;;0.82;;
6249;SDS011;3158;52.148;11.568;2024-01-15T04:36:45;1.42;;;1.10;;
6249;SDS011;3158;52.148;11.568;2024-01-15T04:41:46;4.43;;;0.80;;
6249;SDS011;3158;52.148;11.568;2024-01-15T04:46:47;2.95;;;1.10;;
6249;SDS011;3158;52.148;11.568;2024-01-15T04:51:48;0.60;;;0.60;;
6249;SDS011;3158;52.148;11.568;2024-01-15T04:56:49;3.28;;;0.98;;
6249;SDS011;3158;52.148;11.568;2024-01-15T05:01:50;1.08;;;0.75;;
6249;SDS011;3158;52.148;11.568;2024-01-15T05:06:51;4.65;;;1.00;;
6249;SDS011;3158;52.148;11.568;2024-01-15T05:11:52;6.10;;;0.90;;
6249;SDS011;3158;52.148;11.568;2024-01-15T05:16:53;1.45;;;0.65;;
6249;SDS011;3158;52.148;11.568;2024-01-15T05:21:54;0.70;;;0.70;;
6249;SDS011;3158;52.148;11.568;2024-01-15T05:26:55;2.50;;;0.60;;
6249;SDS011;3158;52.148;11.568;2024-01-15T05:31:56;0.85;;;0.82;;
6249;SDS011;3158;52.148;11.568;2024-01-15T05:36:57;4.55;;;1.20;;
6249;SDS011;3158;52.148;11.568;2024-01-15T05:41:58;8.75;;;0.80;;
6249;SDS011;3158;52.148;11.568;2024-01-15T05:47:00;1.15;;;0.75;;
6249;SDS011;3158;52.148;11.568;2024-01-15T05:52:01;1.60;;;0.80;;
6249;SDS011;3158;52.148;11.568;2024-01-15T05:57:02;7.13;;;1.30;;
6249;SDS011;3158;52.148;11.568;2024-01-15T06:02:03;4.63;;;0.95;;
6249;SDS011;3158;52.148;11.568;2024-01-15T06:07:04;8.20;;;0.80;;
6249;SDS011;3158;52.148;11.568;2024-01-15T06:12:06;2.75;;;0.70;;
6249;SDS011;3158;52.148;11.568;2024-01-15T06:17:07;4.57;;;0.80;;
6249;SDS011;3158;52.148;11.568;2024-01-15T06:22:08;4.63;;;1.13;;
6249;SDS011;3158;52.148;11.568;2024-01-15T06:27:09;9.70;;;1.08;;
6249;SDS011;3158;52.148;11.568;2024-01-15T06:32:10;8.15;;;0.82;;
6249;SDS011;3158;52.148;11.568;2024-01-15T06:37:11;3.03;;;1.00;;
6249;SDS011;3158;52.148;11.568;2024-01-15T06:42:12;1.65;;;0.60;;
6249;SDS011;3158;52.148;11.568;2024-01-15T06:47:13;1.70;;;0.77;;
6249;SDS011;3158;52.148;11.568;2024-01-15T06:52:14;0.80;;;0.70;;
6249;SDS011;3158;52.148;11.568;2024-01-15T06:57:15;2.90;;;0.65;;
6249;SDS011;3158;52.148;11.568;2024-01-15T07:02:16;6.60;;;1.00;;
6249;SDS011;3158;52.148;11.568;2024-01-15T07:07:17;2.63;;;1.15;;
6249;SDS011;3158;52.148;11.568;2024-01-15T07:12:19;0.73;;;0.68;;
6249;SDS011;3158;52.148;11.568;2024-01-15T07:17:20;3.05;;;0.82;;
6249;SDS011;3158;52.148;11.568;2024-01-15T07:22:21;1.05;;;0.93;;
6249;SDS011;3158;52.148;11.568;2024-01-15T07:27:22;5.28;;;1.23;;
6249;SDS011;3158;52.148;11.568;2024-01-15T07:32:23;2.67;;;0.95;;
6249;SDS011;3158;52.148;11.568;2024-01-15T07:37:24;3.15;;;1.02;;
6249;SDS011;3158;52.148;11.568;2024-01-15T07:42:25;1.48;;;0.93;;
6249;SDS011;3158;52.148;11.568;2024-01-15T07:47:26;4.05;;;0.80;;
6249;SDS011;3158;52.148;11.568;2024-01-15T07:52:27;5.50;;;1.27;;
6249;SDS011;3158;52.148;11.568;2024-01-15T07:57:28;0.88;;;0.88;;
6249;SDS011;3158;52.148;11.568;2024-01-15T08:02:29;0.88;;;0.88;;
6249;SDS011;3158;52.148;11.568;2024-01-15T08:07:32;4.45;;;1.20;;
6249;SDS011;3158;52.148;11.568;2024-01-15T08:12:33;1.00;;;0.73;;
6249;SDS011;3158;52.148;11.568;2024-01-15T08:17:33;1.58;;;0.95;;
6249;SDS011;3158;52.148;11.568;2024-01-15T08:22:34;1.58;;;1.08;;
6249;SDS011;3158;52.148;11.568;2024-01-15T08:27:35;0.65;;;0.65;;
6249;SDS011;3158;52.148;11.568;2024-01-15T08:32:36;5.65;;;1.25;;
6249;SDS011;3158;52.148;11.568;2024-01-15T08:37:42;4.95;;;1.60;;
6249;SDS011;3158;52.148;11.568;2024-01-15T08:42:43;1.58;;;1.13;;
6249;SDS011;3158;52.148;11.568;2024-01-15T08:47:45;1.55;;;1.13;;
6249;SDS011;3158;52.148;11.568;2024-01-15T08:52:46;2.25;;;1.10;;
6249;SDS011;3158;52.148;11.568;2024-01-15T08:57:47;1.50;;;1.20;;
6249;SDS011;3158;52.148;11.568;2024-01-15T09:02:48;2.25;;;0.98;;
6249;SDS011;3158;52.148;11.568;2024-01-15T09:07:49;1.33;;;1.08;;
6249;SDS011;3158;52.148;11.568;2024-01-15T09:12:52;1.80;;;0.90;;
6249;SDS011;3158;52.148;11.568;2024-01-15T09:17:53;1.30;;;1.20;;
6249;SDS011;3158;52.148;11.568;2024-01-15T09:22:54;4.25;;;1.02;;
6249;SDS011;3158;52.148;11.568;2024-01-15T09:27:55;1.17;;;0.95;;
6249;SDS011;3158;52.148;11.568;2024-01-15T09:32:56;0.90;;;0.90;;
6249;SDS011;3158;52.148;11.568;2024-01-15T09:37:57;7.57;;;1.20;;
6249;SDS011;3158;52.148;11.568;2024-01-15T09:42:58;1.15;;;1.05;;
6249;SDS011;3158;52.148;11.568;2024-01-15T09:47:59;1.83;;;0.93;;
6249;SDS011;3158;52.148;11.568;2024-01-15T09:53:01;2.70;;;1.13;;
6249;SDS011;3158;52.148;11.568;2024-01-15T09:58:02;3.47;;;1.30;;
6249;SDS011;3158;52.148;11.568;2024-01-15T10:03:03;1.00;;;0.85;;
6249;SDS011;3158;52.148;11.568;2024-01-15T10:08:05;2.03;;;1.30;;
6249;SDS011;3158;52.148;11.568;2024-01-15T10:13:06;2.25;;;0.90;;
6249;SDS011;3158;52.148;11.568;2024-01-15T10:18:07;1.63;;;1.05;;
6249;SDS011;3158;52.148;11.568;2024-01-15T10:23:08;1.48;;;1.10;;
6249;SDS011;3158;52.148;11.568;2024-01-15T10:28:09;1.35;;;1.33;;
6249;SDS011;3158;52.148;11.568;2024-01-15T10:33:10;4.78;;;1.25;;
6249;SDS011;3158;52.148;11.568;2024-01-15T10:38:12;3.00;;;1.33;;
6249;SDS011;3158;52.148;11.568;2024-01-15T10:43:12;2.47;;;1.35;;
6249;SDS011;3158;52.148;11.568;2024-01-15T10:48:15;1.40;;;1.38;;
6249;SDS011;3158;52.148;11.568;2024-01-15T10:53:17;1.45;;;1.42;;
6249;SDS011;3158;52.148;11.568;2024-01-15T10:58:18;2.55;;;1.58;;
6249;SDS011;3158;52.148;11.568;2024-01-15T11:03:20;2.35;;;1.27;;
6249;SDS011;3158;52.148;11.568;2024-01-15T11:08:21;1.05;;;1.05;;
6249;SDS011;3158;52.148;11.568;2024-01-15T11:18:36;2.40;;;1.17;;
6249;SDS011;3158;52.148;11.568;2024-01-15T11:23:45;9.27;;;2.08;;
6249;SDS011;3158;52.148;11.568;2024-01-15T11:28:49;1.10;;;1.00;;
6249;SDS011;3158;52.148;11.568;2024-01-15T11:33:50;0.88;;;0.85;;
6249;SDS011;3158;52.148;11.568;2024-01-15T11:38:51;4.10;;;0.80;;
6249;SDS011;3158;52.148;11.568;2024-01-15T11:43:52;7.32;;;0.93;;
6249;SDS011;3158;52.148;11.568;2024-01-15T11:48:54;0.70;;;0.70;;
6249;SDS011;3158;52.148;11.568;2024-01-15T11:53:59;1.13;;;0.60;;
6249;SDS011;3158;52.148;11.568;2024-01-15T11:59:03;3.88;;;0.82;;
6249;SDS011;3158;52.148;11.568;2024-01-15T12:04:04;1.60;;;0.68;;
6249;SDS011;3158;52.148;11.568;2024-01-15T12:09:06;3.35;;;0.70;;
6249;SDS011;3158;52.148;11.568;2024-01-15T12:14:07;2.30;;;0.93;;
6249;SDS011;3158;52.148;11.568;2024-01-15T12:19:08;0.88;;;0.60;;
6249;SDS011;3158;52.148;11.568;2024-01-15T12:24:09;0.52;;;0.52;;
6249;SDS011;3158;52.148;11.568;2024-01-15T12:29:10;0.82;;;0.68;;
6249;SDS011;3158;52.148;11.568;2024-01-15T12:34:11;3.75;;;0.70;;
6249;SDS011;3158;52.148;11.568;2024-01-15T12:39:12;3.92;;;0.88;;
6249;SDS011;3158;52.148;11.568;2024-01-15T12:44:14;0.93;;;0.93;;
6249;SDS011;3158;52.148;11.568;2024-01-15T12:49:15;1.13;;;1.02;;
6249;SDS011;3158;52.148;11.568;2024-01-15T12:54:16;1.67;;;1.30;;
6249;SDS011;3158;52.148;11.568;2024-01-15T12:59:17;4.88;;;0.75;;
6249;SDS011;3158;52.148;11.568;2024-01-15T13:04:22;1.98;;;0.90;;
6249;SDS011;3158;52.148;11.568;2024-01-15T13:09:23;0.60;;;0.60;;
6249;SDS011;3158;52.148;11.568;2024-01-15T13:14:24;2.55;;;0.50;;
6249;SDS011;3158;52.148;11.568;2024-01-15T13:19:26;1.98;;;1.05;;
6249;SDS011;3158;52.148;11.568;2024-01-15T13:24:27;2.00;;;0.50;;
6249;SDS011;3158;52.148;11.568;2024-01-15T13:29:28;1.23;;;0.50;;
6249;SDS011;3158;52.148;11.568;2024-01-15T13:34:29;0.40;;;0.40;;
6249;SDS011;3158;52.148;11.568;2024-01-15T13:39:30;2.08;;;0.80;;
6249;SDS011;3158;52.148;11.568;2024-01-15T13:44:33;0.45;;;0.45;;
6249;SDS011;3158;52.148;11.568;2024-01-15T13:49:34;5.47;;;0.68;;
6249;SDS011;3158;52.148;11.568;2024-01-15T13:54:36;2.83;;;0.50;;
6249;SDS011;3158;52.148;11.568;2024-01-15T13:59:38;0.40;;;0.40;;
6249;SDS011;3158;52.148;11.568;2024-01-15T14:04:39;0.40;;;0.40;;
6249;SDS011;3158;52.148;11.568;2024-01-15T14:09:41;1.45;;;0.52;;
6249;SDS011;3158;52.148;11.568;2024-01-15T14:14:42;0.85;;;0.70;;
6249;SDS011;3158;52.148;11.568;2024-01-15T14:19:43;1.55;;;0.60;;
6249;SDS011;3158;52.148;11.568;2024-01-15T14:24:44;0.90;;;0.60;;
6249;SDS011;3158;52.148;11.568;2024-01-15T14:29:45;0.68;;;0.68;;
6249;SDS011;3158;52.148;11.568;2024-01-15T14:34:46;0.55;;;0.50;;
6249;SDS011;3158;52.148;11.568;2024-01-15T14:39:48;0.47;;;0.45;;
6249;SDS011;3158;52.148;11.568;2024-01-15T14:44:49;3.65;;;0.40;;
6249;SDS011;3158;52.148;11.568;2024-01-15T14:49:50;1.02;;;0.63;;
6249;SDS011;3158;52.148;11.568;2024-01-15T14:54:51;1.95;;;1.05;;
6249;SDS011;3158;52.148;11.568;2024-01-15T14:59:52;0.80;;;0.50;;
6249;SDS011;3158;52.148;11.568;2024-01-15T15:04:53;1.40;;;0.60;;
6249;SDS011;3158;52.148;11.568;2024-01-15T15:09:55;2.45;;;0.30;;
6249;SDS011;3158;52.148;11.568;2024-01-15T15:14:57;1.65;;;0.40;;
6249;SDS011;3158;52.148;11.568;2024-01-15T15:19:57;0.60;;;0.60;;
6249;SDS011;3158;52.148;11.568;2024-01-15T15:24:58;3.42;;;0.60;;
6249;SDS011;3158;52.148;11.568;2024-01-15T15:29:59;1.85;;;0.60;;
6249;SDS011;3158;52.148;11.568;2024-01-15T15:35:00;3.55;;;0.52;;
6249;SDS011;3158;52.148;11.568;2024-01-15T15:40:01;0.75;;;0.75;;
6249;SDS011;3158;52.148;11.568;2024-01-15T15:45:03;1.75;;;0.82;;
6249;SDS011;3158;52.148;11.568;2024-01-15T15:50:05;1.05;;;0.70;;
6249;SDS011;3158;52.148;11.568;2024-01-15T15:55:06;1.67;;;1.00;;
6249;SDS011;3158;52.148;11.568;2024-01-15T16:00:08;3.78;;;1.27;;
6249;SDS011;3158;52.148;11.568;2024-01-15T16:05:12;1.13;;;0.98;;
6249;SDS011;3158;52.148;11.568;2024-01-15T16:10:13;0.65;;;0.65;;
6249;SDS011;3158;52.148;11.568;2024-01-15T16:15:18;0.45;;;0.45;;
6249;SDS011;3158;52.148;11.568;2024-01-15T16:20:20;2.00;;;1.05;;
6249;SDS011;3158;52.148;11.568;2024-01-15T16:25:21;2.58;;;0.60;;
6249;SDS011;3158;52.148;11.568;2024-01-15T16:30:22;3.25;;;0.70;;
6249;SDS011;3158;52.148;11.568;2024-01-15T16:35:23;1.92;;;1.20;;
6249;SDS011;3158;52.148;11.568;2024-01-15T16:40:24;4.65;;;1.55;;
6249;SDS011;3158;52.148;11.568;2024-01-15T16:45:25;1.73;;;1.50;;
6249;SDS011;3158;52.148;11.568;2024-01-15T16:50:26;4.32;;;2.42;;
6249;SDS011;3158;52.148;11.568;2024-01-15T16:55:28;4.85;;;1.50;;
6249;SDS011;3158;52.148;11.568;2024-01-15T17:00:29;3.63;;;2.40;;
6249;SDS011;3158;52.148;11.568;2024-01-15T17:05:30;1.67;;;1.38;;
6249;SDS011;3158;52.148;11.568;2024-01-15T17:10:31;3.40;;;1.08;;
6249;SDS011;3158;52.148;11.568;2024-01-15T17:15:33;3.10;;;0.85;;
6249;SDS011;3158;52.148;11.568;2024-01-15T17:20:34;6.13;;;1.15;;
6249;SDS011;3158;52.148;11.568;2024-01-15T17:25:36;1.40;;;1.00;;
6249;SDS011;3158;52.148;11.568;2024-01-15T17:30:38;3.60;;;1.00;;
6249;SDS011;3158;52.148;11.568;2024-01-15T17:35:39;1.63;;;0.90;;
6249;SDS011;3158;52.148;11.568;2024-01-15T17:40:40;1.73;;;1.63;;
6249;SDS011;3158;52.148;11.568;2024-01-15T17:45:41;1.70;;;1.60;;
6249;SDS011;3158;52.148;11.568;2024-01-15T17:50:42;3.33;;;2.20;;
6249;SDS011;3158;52.148;11.568;2024-01-15T17:55:43;2.95;;;2.72;;
6249;SDS011;3158;52.148;11.568;2024-01-15T18:00:44;3.58;;;3.20;;
6249;SDS011;3158;52.148;11.568;2024-01-15T18:05:45;3.67;;;3.47;;
6249;SDS011;3158;52.148;11.568;2024-01-15T18:10:46;2.65;;;2.42;;
6249;SDS011;3158;52.148;11.568;2024-01-15T18:15:47;1.95;;;1.33;;
6249;SDS011;3158;52.148;11.568;2024-01-15T18:20:48;1.80;;;1.17;;
6249;SDS011;3158;52.148;11.568;2024-01-15T18:25:49;1.58;;;1.42;;
6249;SDS011;3158;52.148;11.568;2024-01-15T18:30:50;2.00;;;1.80;;
6249;SDS011;3158;52.148;11.568;2024-01-15T18:35:51;4.53;;;2.97;;
6249;SDS011;3158;52.148;11.568;2024-01-15T18:40:52;2.78;;;1.90;;
6249;SDS011;3158;52.148;11.568;2024-01-15T18:45:54;2.42;;;1.05;;
6249;SDS011;3158;52.148;11.568;2024-01-15T18:50:55;1.10;;;1.05;;
6249;SDS011;3158;52.148;11.568;2024-01-15T18:55:56;2.47;;;2.13;;
6249;SDS011;3158;52.148;11.568;2024-01-15T19:00:57;2.30;;;2.20;;
6249;SDS011;3158;52.148;11.568;2024-01-15T19:05:59;1.88;;;1.77;;
6249;SDS011;3158;52.148;11.568;2024-01-15T19:11:00;2.03;;;1.92;;
6249;SDS011;3158;52.148;11.568;2024-01-15T19:16:01;2.05;;;1.60;;
6249;SDS011;3158;52.148;11.568;2024-01-15T19:21:02;2.03;;;1.55;;
6249;SDS011;3158;52.148;11.568;2024-01-15T19:26:03;2.08;;;1.85;;
6249;SDS011;3158;52.148;11.568;2024-01-15T19:31:04;11.23;;;1.92;;
6249;SDS011;3158;52.148;11.568;2024-01-15T19:36:05;9.23;;;2.33;;
6249;SDS011;3158;52.148;11.568;2024-01-15T19:41:06;2.60;;;1.75;;
6249;SDS011;3158;52.148;11.568;2024-01-15T19:46:07;1.77;;;1.65;;
6249;SDS011;3158;52.148;11.568;2024-01-15T19:51:08;3.88;;;1.67;;
6249;SDS011;3158;52.148;11.568;2024-01-15T19:56:09;1.75;;;1.67;;
6249;SDS011;3158;52.148;11.568;2024-01-15T20:01:10;1.30;;;1.30;;
6249;SDS011;3158;52.148;11.568;2024-01-15T20:06:11;3.20;;;1.75;;
6249;SDS011;3158;52.148;11.568;2024-01-15T20:11:14;2.35;;;1.48;;
6249;SDS011;3158;52.148;11.568;2024-01-15T20:16:15;1.42;;;1.38;;
6249;SDS011;3158;52.148;11.568;2024-01-15T20:21:16;6.05;;;2.35;;
6249;SDS011;3158;52.148;11.568;2024-01-15T20:26:18;2.58;;;1.70;;
6249;SDS011;3158;52.148;11.568;2024-01-15T20:31:19;2.20;;;1.77;;
6249;SDS011;3158;52.148;11.568;2024-01-15T20:36:20;1.95;;;1.33;;
6249;SDS011;3158;52.148;11.568;2024-01-15T20:41:21;1.45;;;1.35;;
6249;SDS011;3158;52.148;11.568;2024-01-15T20:46:22;5.03;;;1.90;;
6249;SDS011;3158;52.148;11.568;2024-01-15T20:51:23;6.25;;;2.47;;
6249;SDS011;3158;52.148;11.568;2024-01-15T20:56:24;2.92;;;2.10;;
6249;SDS011;3158;52.148;11.568;2024-01-15T21:01:25;0.40;;;0.40;;
6249;SDS011;3158;52.148;11.568;2024-01-15T21:06:26;0.40;;;0.40;;
6249;SDS011;3158;52.148;11.568;2024-01-15T21:11:28;0.88;;;0.88;;
6249;SDS011;3158;52.148;11.568;2024-01-15T21:16:29;1.10;;;1.10;;
6249;SDS011;3158;52.148;11.568;2024-01-15T21:21:30;1.08;;;0.90;;
6249;SDS011;3158;52.148;11.568;2024-01-15T21:26:31;1.92;;;1.38;;
6249;SDS011;3158;52.148;11.568;2024-01-15T21:31:36;1.88;;;1.10;;
6249;SDS011;3158;52.148;11.568;2024-01-15T21:36:37;1.27;;;1.27;;
6249;SDS011;3158;52.148;11.568;2024-01-15T21:41:38;1.65;;;1.55;;
6249;SDS011;3158;52.148;11.568;2024-01-15T21:46:39;1.83;;;1.73;;
6249;SDS011;3158;52.148;11.568;2024-01-15T21:51:40;1.98;;;1.63;;
6249;SDS011;3158;52.148;11.568;2024-01-15T21:56:41;2.45;;;1.65;;
6249;SDS011;3158;52.148;11.568;2024-01-15T22:01:42;2.15;;;1.25;;
6249;SDS011;3158;52.148;11.568;2024-01-15T22:06:43;4.53;;;1.38;;
6249;SDS011;3158;52.148;11.568;2024-01-15T22:11:44;0.98;;;0.98;;
6249;SDS011;3158;52.148;11.568;2024-01-15T22:16:44;0.88;;;0.88;;
6249;SDS011;3158;52.148;11.568;2024-01-15T22:21:46;3.10;;;1.10;;
6249;SDS011;3158;52.148;11.568;2024-01-15T22:26:48;3.78;;;0.95;;
6249;SDS011;3158;52.148;11.568;2024-01-15T22:31:49;1.23;;;0.70;;
6249;SDS011;3158;52.148;11.568;2024-01-15T22:36:50;0.93;;;0.93;;
6249;SDS011;3158;52.148;11.568;2024-01-15T22:41:51;1.40;;;1.00;;
6249;SDS011;3158;52.148;11.568;2024-01-15T22:46:52;4.18;;;1.35;;
6249;SDS011;3158;52.148;11.568;2024-01-15T22:51:53;1.70;;;1.00;;
6249;SDS011;3158;52.148;11.568;2024-01-15T22:56:54;1.33;;;1.30;;
6249;SDS011;3158;52.148;11.568;2024-01-15T23:01:55;4.22;;;1.30;;
6249;SDS011;3158;52.148;11.568;2024-01-15T23:06:56;5.57;;;1.40;;
6249;SDS011;3158;52.148;11.568;2024-01-15T23:11:57;1.60;;;1.60;;
6249;SDS011;3158;52.148;11.568;2024-01-15T23:16:58;2.50;;;1.80;;
6249;SDS011;3158;52.148;11.568;2024-01-15T23:21:59;1.73;;;1.50;;
6249;SDS011;3158;52.148;11.568;2024-01-15T23:27:00;1.38;;;1.27;;
6249;SDS011;3158;52.148;11.568;2024-01-15T23:32:01;2.10;;;0.98;;
6249;SDS011;3158;52.148;11.568;2024-01-15T23:37:04;1.02;;;1.00;;
6249;SDS011;3158;52.148;11.568;2024-01-15T23:42:04;2.13;;;1.08;;
6249;SDS011;3158;52.148;11.568;2024-01-15T23:47:06;2.03;;;1.27;;
6249;SDS011;3158;52.148;11.568;2024-01-15T23:52:08;0.80;;;0.75;;
6249;SDS011;3158;52.148;11.568;2024-01-15T23:57:09;3.10;;;0.60;;
